Time;durP1;ratioP1;P1;durP2;ratioP2;P2;SDS_P1;SDS_P2;PMS_P1;PMS_P2;Temp;Humidity;BMP_temperature;BMP_pressure;BME280_temperature;BME280_humidity;BME280_pressure;Samples;Min_cycle;Max_cycle;Signal;HPM_P1;HPM_P2
2022/12/11 00:02:18;;;;;;;162.27;23.92;;;;;;;;;;5052764;28;20424;-76
2022/12/11 00:04:44;;;;;;;149.35;25.90;;;;;;;;;;5052296;28;20162;-76
2022/12/11 00:07:10;;;;;;;160.18;24.85;;;;;;;;;;5051697;28;20048;-76
2022/12/11 00:09:36;;;;;;;119.57;23.25;;;;;;;;;;5035741;28;20087;-76
2022/12/11 00:12:04;;;;;;;122.05;21.45;;;;;;;;;;5035705;28;20045;-76
2022/12/11 00:14:30;;;;;;;121.72;21.65;;;;;;;;;;5052351;28;20059;-76
2022/12/11 00:16:57;;;;;;;114.90;21.50;;;;;;;;;;5053292;28;20103;-76
2022/12/11 00:19:23;;;;;;;121.30;21.45;;;;;;;;;;5051773;28;20209;-76
2022/12/11 00:21:49;;;;;;;123.82;21.00;;;;;;;;;;5051620;28;20091;-76
2022/12/11 00:24:15;;;;;;;117.60;21.15;;;;;;;;;;5035356;28;20045;-76
2022/12/11 00:26:41;;;;;;;126.40;20.33;;;;;;;;;;5052142;28;20040;-76
2022/12/11 00:29:13;;;;;;;108.95;20.17;;;;;;;;;;5051589;28;20115;-76
2022/12/11 00:31:39;;;;;;;111.38;20.42;;;;;;;;;;5051850;28;20056;-76
2022/12/11 00:34:05;;;;;;;110.60;19.30;;;;;;;;;;5051505;28;20036;-76
2022/12/11 00:36:31;;;;;;;121.30;19.25;;;;;;;;;;5035290;28;20048;-76
2022/12/11 00:38:57;;;;;;;122.30;21.00;;;;;;;;;;5034924;28;20040;-76
2022/12/11 00:41:23;;;;;;;102.68;19.38;;;;;;;;;;5051933;28;20076;-77
2022/12/11 00:43:49;;;;;;;105.07;19.10;;;;;;;;;;5051707;28;20037;-76
2022/12/11 00:46:16;;;;;;;99.57;19.10;;;;;;;;;;5051995;28;20036;-76
2022/12/11 00:48:42;;;;;;;103.78;18.88;;;;;;;;;;5034710;28;20064;-76
2022/12/11 00:51:08;;;;;;;104.60;19.50;;;;;;;;;;5051590;28;20096;-76
2022/12/11 00:53:34;;;;;;;107.30;19.80;;;;;;;;;;5051896;28;20076;-76
2022/12/11 00:56:00;;;;;;;94.45;18.70;;;;;;;;;;5034921;28;20056;-76
2022/12/11 00:58:27;;;;;;;104.95;18.98;;;;;;;;;;5051464;28;20033;-76
2022/12/11 01:00:53;;;;;;;111.18;20.15;;;;;;;;;;5050620;28;20044;-76
2022/12/11 01:03:19;;;;;;;102.78;18.15;;;;;;;;;;5052356;28;20116;-76
2022/12/11 01:05:52;;;;;;;98.03;18.33;;;;;;;;;;5051473;28;20037;-76
2022/12/11 01:08:18;;;;;;;106.00;18.40;;;;;;;;;;5034271;28;20081;-76
2022/12/11 01:10:44;;;;;;;115.22;20.85;;;;;;;;;;5051118;28;20053;-76
2022/12/11 01:13:10;;;;;;;111.90;19.55;;;;;;;;;;5050788;28;20107;-76
2022/12/11 01:15:41;;;;;;;95.68;18.52;;;;;;;;;;5034526;28;20045;-76
2022/12/11 01:18:07;;;;;;;123.07;18.98;;;;;;;;;;5033432;28;20068;-76
2022/12/11 01:20:33;;;;;;;102.40;18.95;;;;;;;;;;5051068;28;20536;-76
2022/12/11 01:23:00;;;;;;;129.93;21.40;;;;;;;;;;5050971;28;20044;-76
2022/12/11 01:25:27;;;;;;;111.93;19.48;;;;;;;;;;5067902;28;20504;-76
2022/12/11 01:27:54;;;;;;;114.18;21.05;;;;;;;;;;5050873;28;20044;-76
2022/12/11 01:30:21;;;;;;;118.80;20.45;;;;;;;;;;5050525;28;20037;-76
2022/12/11 01:32:47;;;;;;;121.78;21.30;;;;;;;;;;5051107;28;20053;-76
2022/12/11 01:35:13;;;;;;;117.47;21.35;;;;;;;;;;5050031;28;20047;-76
2022/12/11 01:37:39;;;;;;;137.65;20.85;;;;;;;;;;5034271;28;20124;-76
2022/12/11 01:40:06;;;;;;;120.63;22.23;;;;;;;;;;5050595;28;20041;-76
2022/12/11 01:42:32;;;;;;;123.47;21.48;;;;;;;;;;5051164;28;20400;-76
2022/12/11 01:45:16;;;;;;;141.18;22.75;;;;;;;;;;5050433;28;20037;-76
2022/12/11 01:47:43;;;;;;;119.78;20.63;;;;;;;;;;5052142;28;20033;-76
2022/12/11 01:50:09;;;;;;;136.85;21.27;;;;;;;;;;5067276;28;20406;-76
2022/12/11 01:52:35;;;;;;;138.02;21.73;;;;;;;;;;5050684;28;20037;-76
2022/12/11 01:55:01;;;;;;;137.20;22.13;;;;;;;;;;5083835;28;20087;-76
2022/12/11 01:57:27;;;;;;;139.93;21.88;;;;;;;;;;5050629;28;20037;-76
2022/12/11 01:59:53;;;;;;;145.93;23.45;;;;;;;;;;5034255;28;20118;-76
2022/12/11 02:02:28;;;;;;;140.07;24.27;;;;;;;;;;5050684;28;20394;-76
2022/12/11 02:04:54;;;;;;;138.45;22.83;;;;;;;;;;5050537;28;20040;-76
2022/12/11 02:07:20;;;;;;;139.98;24.30;;;;;;;;;;5050600;28;20142;-76
2022/12/11 02:09:47;;;;;;;135.27;23.33;;;;;;;;;;5014144;28;20049;-76
2022/12/11 02:12:28;;;;;;;131.40;22.35;;;;;;;;;;5041353;28;20137;-76
2022/12/11 02:15:13;;;;;;;120.03;22.92;;;;;;;;;;5051898;28;20108;-76
2022/12/11 02:17:58;;;;;;;139.13;23.63;;;;;;;;;;5050475;28;20104;-76
2022/12/11 02:20:50;;;;;;;127.80;22.83;;;;;;;;;;5039595;28;20116;-76
2022/12/11 02:23:45;;;;;;;132.15;21.92;;;;;;;;;;5047324;28;20048;-76
2022/12/11 02:26:21;;;;;;;145.80;24.60;;;;;;;;;;4998299;28;20046;-76
2022/12/11 02:28:53;;;;;;;131.90;23.50;;;;;;;;;;5052222;28;20117;-76
2022/12/11 02:31:22;;;;;;;123.30;21.65;;;;;;;;;;5053933;28;20047;-76
2022/12/11 02:33:54;;;;;;;129.02;24.17;;;;;;;;;;5053639;28;20036;-76
2022/12/11 02:36:23;;;;;;;135.40;23.60;;;;;;;;;;5053668;28;20060;-76
2022/12/11 02:38:51;;;;;;;128.93;22.48;;;;;;;;;;5053904;28;20057;-77
2022/12/11 02:41:19;;;;;;;150.65;22.98;;;;;;;;;;5053806;28;20032;-76
2022/12/11 02:43:45;;;;;;;144.77;23.58;;;;;;;;;;5037239;28;20090;-76
2022/12/11 02:46:12;;;;;;;143.40;23.67;;;;;;;;;;5053489;28;20040;-76
2022/12/11 02:48:40;;;;;;;133.80;23.77;;;;;;;;;;5055435;28;20147;-76
2022/12/11 02:51:07;;;;;;;146.13;23.60;;;;;;;;;;5054157;28;20041;-76
2022/12/11 02:53:35;;;;;;;142.48;24.13;;;;;;;;;;5054176;28;20136;-76
2022/12/11 02:56:05;;;;;;;129.70;24.25;;;;;;;;;;5055284;28;20033;-76
2022/12/11 02:58:33;;;;;;;119.63;22.58;;;;;;;;;;5053887;28;20048;-76
2022/12/11 03:00:59;;;;;;;123.18;23.40;;;;;;;;;;5053663;28;20041;-76
2022/12/11 03:03:25;;;;;;;122.50;22.33;;;;;;;;;;5054070;28;20121;-76
2022/12/11 03:05:52;;;;;;;141.50;23.55;;;;;;;;;;5053293;28;20386;-76
2022/12/11 03:08:18;;;;;;;135.50;23.45;;;;;;;;;;5053203;28;20111;-76
2022/12/11 03:10:44;;;;;;;151.40;25.48;;;;;;;;;;5053575;28;20059;-76
2022/12/11 03:13:12;;;;;;;146.65;24.88;;;;;;;;;;5052975;28;20041;-76
2022/12/11 03:15:46;;;;;;;140.07;24.63;;;;;;;;;;5052408;28;20428;-76
2022/12/11 03:18:12;;;;;;;142.43;23.80;;;;;;;;;;5052811;28;20041;-77
2022/12/11 03:20:43;;;;;;;160.68;25.15;;;;;;;;;;5053113;28;20033;-77
2022/12/11 03:23:27;;;;;;;159.68;26.10;;;;;;;;;;5053191;28;20044;-76
2022/12/11 03:25:54;;;;;;;149.82;23.23;;;;;;;;;;5055285;28;20108;-77
2022/12/11 03:28:44;;;;;;;160.25;25.85;;;;;;;;;;5053182;28;20045;-76
2022/12/11 03:31:12;;;;;;;147.68;25.08;;;;;;;;;;5053062;28;20048;-76
2022/12/11 03:33:43;;;;;;;138.65;23.50;;;;;;;;;;5086880;28;20072;-77
2022/12/11 03:36:16;;;;;;;156.63;24.60;;;;;;;;;;5052853;28;20067;-76
2022/12/11 03:38:48;;;;;;;132.77;22.92;;;;;;;;;;5052722;28;20045;-76
2022/12/11 03:41:15;;;;;;;134.20;22.27;;;;;;;;;;5051459;28;20125;-76
2022/12/11 03:43:42;;;;;;;132.80;24.50;;;;;;;;;;5036061;28;20037;-77
2022/12/11 03:46:09;;;;;;;141.98;25.13;;;;;;;;;;5036345;28;20490;-76
2022/12/11 03:48:37;;;;;;;137.32;24.65;;;;;;;;;;5052128;28;20090;-76
2022/12/11 03:51:06;;;;;;;123.65;23.13;;;;;;;;;;5052841;28;20071;-76
2022/12/11 03:53:33;;;;;;;140.90;24.95;;;;;;;;;;5052079;28;20055;-76
2022/12/11 03:56:00;;;;;;;115.90;21.58;;;;;;;;;;5052371;28;20048;-76
2022/12/11 03:58:26;;;;;;;108.28;20.58;;;;;;;;;;5051886;28;20563;-76
2022/12/11 04:00:52;;;;;;;117.32;21.48;;;;;;;;;;5052908;28;20505;-76
2022/12/11 04:03:18;;;;;;;120.40;23.17;;;;;;;;;;5052188;28;20494;-76
2022/12/11 04:05:48;;;;;;;126.38;21.63;;;;;;;;;;5052190;28;20041;-76
2022/12/11 04:08:15;;;;;;;128.68;21.95;;;;;;;;;;5051717;28;20150;-76
2022/12/11 04:10:41;;;;;;;126.55;22.25;;;;;;;;;;5052419;28;20562;-76
2022/12/11 04:13:08;;;;;;;106.95;21.55;;;;;;;;;;5051917;28;20045;-76
2022/12/11 04:15:34;;;;;;;110.60;21.45;;;;;;;;;;5051519;28;20037;-76
2022/12/11 04:26:16;;;;;;;105.15;19.88;;;;;;;;;;5085375;28;20036;-76
2022/12/11 04:28:43;;;;;;;108.22;20.83;;;;;;;;;;5051564;28;20151;-76
2022/12/11 04:31:13;;;;;;;115.18;20.10;;;;;;;;;;5035022;28;20060;-76
2022/12/11 04:33:39;;;;;;;107.07;20.70;;;;;;;;;;5045511;28;20123;-76
2022/12/11 04:36:05;;;;;;;106.20;20.20;;;;;;;;;;5046691;28;20176;-76
2022/12/11 04:38:31;;;;;;;126.63;21.00;;;;;;;;;;5051098;28;20526;-76
2022/12/11 04:40:58;;;;;;;116.60;21.23;;;;;;;;;;5051675;28;20037;-77
2022/12/11 04:43:24;;;;;;;110.15;21.10;;;;;;;;;;5035096;28;20029;-77
2022/12/11 04:45:50;;;;;;;114.18;20.92;;;;;;;;;;5052043;28;20398;-76
2022/12/11 04:48:16;;;;;;;113.28;21.58;;;;;;;;;;5051784;28;20486;-76
2022/12/11 04:50:42;;;;;;;111.22;20.63;;;;;;;;;;5051924;28;20489;-76
2022/12/11 04:53:08;;;;;;;113.18;21.05;;;;;;;;;;5052588;28;20095;-76
2022/12/11 04:55:34;;;;;;;99.82;21.42;;;;;;;;;;5052953;28;20470;-76
2022/12/11 04:58:00;;;;;;;107.80;21.13;;;;;;;;;;5051658;28;20494;-77
2022/12/11 05:00:26;;;;;;;103.15;20.20;;;;;;;;;;5050400;28;20091;-76
2022/12/11 05:02:52;;;;;;;113.50;20.38;;;;;;;;;;5061723;28;20086;-77
2022/12/11 05:05:18;;;;;;;124.10;21.25;;;;;;;;;;5051131;28;20029;-76
2022/12/11 05:07:44;;;;;;;114.28;20.80;;;;;;;;;;5051111;28;20127;-77
2022/12/11 05:10:10;;;;;;;115.30;21.30;;;;;;;;;;5060655;28;20103;-76
2022/12/11 05:12:37;;;;;;;119.10;21.45;;;;;;;;;;5051313;28;20045;-76
2022/12/11 05:15:03;;;;;;;120.07;19.70;;;;;;;;;;5051610;28;20040;-76
2022/12/11 05:17:29;;;;;;;113.10;21.58;;;;;;;;;;5050877;28;20045;-76
2022/12/11 05:19:55;;;;;;;131.30;21.35;;;;;;;;;;5052970;28;20443;-77
2022/12/11 05:22:21;;;;;;;123.70;21.08;;;;;;;;;;5057230;28;20029;-76
2022/12/11 05:24:47;;;;;;;123.80;21.35;;;;;;;;;;5050996;28;20041;-76
2022/12/11 05:27:13;;;;;;;113.78;20.67;;;;;;;;;;5051273;28;20049;-76
2022/12/11 05:29:39;;;;;;;112.03;20.58;;;;;;;;;;5050800;28;20044;-76
2022/12/11 05:32:05;;;;;;;114.22;19.80;;;;;;;;;;5051344;28;20052;-76
2022/12/11 05:34:32;;;;;;;120.55;21.80;;;;;;;;;;5040146;28;20037;-76
2022/12/11 05:36:58;;;;;;;112.57;20.63;;;;;;;;;;5052311;28;20215;-76
2022/12/11 05:39:24;;;;;;;114.07;18.92;;;;;;;;;;5050847;28;20094;-77
2022/12/11 05:41:50;;;;;;;110.85;20.77;;;;;;;;;;5050711;28;20052;-76
2022/12/11 05:44:16;;;;;;;111.03;20.90;;;;;;;;;;5050919;28;20116;-76
2022/12/11 05:46:42;;;;;;;109.93;20.45;;;;;;;;;;5050465;28;20083;-76
2022/12/11 05:49:09;;;;;;;102.85;20.08;;;;;;;;;;5034888;28;20037;-78
2022/12/11 05:51:38;;;;;;;116.45;21.02;;;;;;;;;;5050629;28;20072;-77
2022/12/11 05:54:04;;;;;;;116.05;21.42;;;;;;;;;;5051063;28;20533;-77
2022/12/11 05:56:32;;;;;;;128.38;20.58;;;;;;;;;;5050384;28;20041;-77
2022/12/11 05:58:59;;;;;;;113.78;20.85;;;;;;;;;;5051163;28;20072;-77
2022/12/11 06:01:39;;;;;;;116.63;21.77;;;;;;;;;;5050863;28;20037;-77
2022/12/11 06:04:06;;;;;;;110.57;19.75;;;;;;;;;;5039497;28;20379;-77
2022/12/11 06:06:32;;;;;;;107.82;20.65;;;;;;;;;;5055988;28;20037;-77
2022/12/11 06:08:59;;;;;;;109.45;20.02;;;;;;;;;;5054525;28;20049;-77
2022/12/11 06:11:27;;;;;;;116.85;22.63;;;;;;;;;;5054439;28;20041;-77
2022/12/11 06:13:53;;;;;;;127.78;21.50;;;;;;;;;;5054035;28;20044;-77
2022/12/11 06:16:20;;;;;;;105.30;21.05;;;;;;;;;;5037980;28;20127;-77
2022/12/11 06:18:46;;;;;;;122.50;22.75;;;;;;;;;;5053717;28;20068;-77
2022/12/11 06:21:17;;;;;;;116.72;21.50;;;;;;;;;;5054696;28;20052;-77
2022/12/11 06:23:43;;;;;;;124.57;21.25;;;;;;;;;;5054142;28;20041;-77
2022/12/11 06:26:10;;;;;;;103.53;20.30;;;;;;;;;;5054228;28;20025;-77
2022/12/11 06:28:36;;;;;;;113.55;21.13;;;;;;;;;;5054026;28;20044;-77
2022/12/11 06:31:02;;;;;;;125.93;23.05;;;;;;;;;;5037429;28;20052;-77
2022/12/11 06:33:29;;;;;;;108.78;21.70;;;;;;;;;;5037550;28;20068;-77
2022/12/11 06:35:55;;;;;;;121.57;21.85;;;;;;;;;;5053896;28;20102;-77
2022/12/11 06:38:21;;;;;;;124.93;22.00;;;;;;;;;;5053953;28;20041;-77
2022/12/11 06:40:54;;;;;;;126.70;22.20;;;;;;;;;;5037033;28;20183;-77
2022/12/11 06:43:20;;;;;;;103.80;20.88;;;;;;;;;;5054020;28;20135;-77
2022/12/11 06:45:47;;;;;;;109.35;21.20;;;;;;;;;;5053405;28;20040;-77
2022/12/11 06:48:13;;;;;;;113.68;22.58;;;;;;;;;;5054209;28;20496;-77
2022/12/11 06:50:39;;;;;;;111.80;21.25;;;;;;;;;;5053804;28;20066;-77
2022/12/11 06:53:05;;;;;;;126.43;22.50;;;;;;;;;;5053657;28;20048;-77
2022/12/11 06:55:34;;;;;;;123.50;22.80;;;;;;;;;;5053775;28;20047;-77
2022/12/11 06:58:00;;;;;;;124.47;23.05;;;;;;;;;;5037086;28;20048;-77
2022/12/11 07:00:26;;;;;;;108.72;22.55;;;;;;;;;;5054956;28;20040;-77
2022/12/11 07:02:52;;;;;;;116.95;22.58;;;;;;;;;;5053130;28;20131;-77
2022/12/11 07:05:18;;;;;;;124.28;21.52;;;;;;;;;;5053471;28;20040;-77
2022/12/11 07:07:44;;;;;;;108.65;22.02;;;;;;;;;;5054732;28;20044;-77
2022/12/11 07:10:11;;;;;;;124.45;23.15;;;;;;;;;;5036572;28;20061;-77
2022/12/11 07:12:37;;;;;;;127.93;23.08;;;;;;;;;;5053059;28;20044;-77
2022/12/11 07:15:04;;;;;;;128.18;22.60;;;;;;;;;;5036113;28;20076;-76
2022/12/11 07:17:30;;;;;;;109.22;21.02;;;;;;;;;;5035889;28;20037;-76
2022/12/11 07:19:56;;;;;;;123.05;23.13;;;;;;;;;;5036381;28;20037;-77
2022/12/11 07:22:22;;;;;;;114.45;21.38;;;;;;;;;;5054397;28;20029;-77
2022/12/11 07:24:48;;;;;;;125.78;22.65;;;;;;;;;;5054043;28;20501;-77
2022/12/11 07:27:14;;;;;;;115.43;22.90;;;;;;;;;;5036665;28;20040;-76
2022/12/11 07:29:40;;;;;;;128.75;23.00;;;;;;;;;;5052960;28;20402;-77
2022/12/11 07:32:06;;;;;;;120.72;22.52;;;;;;;;;;5036827;28;20405;-77
2022/12/11 07:34:32;;;;;;;107.22;21.35;;;;;;;;;;5042231;28;20048;-77
2022/12/11 07:36:58;;;;;;;131.77;23.23;;;;;;;;;;5052366;28;20074;-77
2022/12/11 07:39:24;;;;;;;122.65;22.58;;;;;;;;;;5052884;28;20052;-77
2022/12/11 07:41:50;;;;;;;111.40;22.67;;;;;;;;;;5036166;28;20112;-77
2022/12/11 07:44:16;;;;;;;119.75;23.58;;;;;;;;;;5054655;28;20037;-77
2022/12/11 07:46:42;;;;;;;112.40;22.45;;;;;;;;;;5054073;28;20028;-76
2022/12/11 07:49:08;;;;;;;122.35;22.73;;;;;;;;;;5053157;28;20052;-77
2022/12/11 07:51:35;;;;;;;126.53;23.20;;;;;;;;;;5052659;28;20033;-77
2022/12/11 07:54:03;;;;;;;116.80;22.77;;;;;;;;;;5052728;28;20043;-77
2022/12/11 07:56:30;;;;;;;116.57;21.23;;;;;;;;;;5052550;28;20037;-77
2022/12/11 07:58:58;;;;;;;114.25;22.30;;;;;;;;;;5052240;28;20048;-77
2022/12/11 08:01:25;;;;;;;109.50;21.35;;;;;;;;;;5052599;28;20047;-77
2022/12/11 08:03:52;;;;;;;99.70;21.67;;;;;;;;;;5052236;28;20117;-77
2022/12/11 08:06:20;;;;;;;118.97;23.05;;;;;;;;;;5052491;28;20076;-77
2022/12/11 08:08:46;;;;;;;127.10;22.00;;;;;;;;;;5051686;28;20111;-77
2022/12/11 08:11:13;;;;;;;119.40;23.65;;;;;;;;;;5052198;28;20048;-77
2022/12/11 08:13:40;;;;;;;119.65;21.73;;;;;;;;;;5051941;28;20037;-77
2022/12/11 08:16:07;;;;;;;115.30;22.50;;;;;;;;;;5051778;28;20047;-77
2022/12/11 08:18:34;;;;;;;110.78;22.90;;;;;;;;;;5051968;28;20056;-77
2022/12/11 08:21:05;;;;;;;114.65;21.80;;;;;;;;;;5035356;28;20525;-78
2022/12/11 08:23:31;;;;;;;108.75;22.05;;;;;;;;;;5053414;28;20044;-77
2022/12/11 08:25:57;;;;;;;105.25;21.50;;;;;;;;;;5052793;28;20052;-77
2022/12/11 08:28:23;;;;;;;113.47;22.20;;;;;;;;;;5051624;28;20132;-77
2022/12/11 08:30:49;;;;;;;109.50;21.77;;;;;;;;;;5051521;28;20052;-77
2022/12/11 08:33:15;;;;;;;112.80;23.27;;;;;;;;;;5049456;28;20036;-77
2022/12/11 08:35:42;;;;;;;106.40;21.67;;;;;;;;;;5043574;28;20102;-77
2022/12/11 08:38:09;;;;;;;102.65;22.60;;;;;;;;;;5068157;28;20044;-77
2022/12/11 08:40:35;;;;;;;100.30;20.45;;;;;;;;;;5051895;28;20048;-77
2022/12/11 08:43:01;;;;;;;119.95;21.50;;;;;;;;;;5051288;28;20048;-77
2022/12/11 08:45:27;;;;;;;112.63;20.85;;;;;;;;;;5035128;28;20124;-77
2022/12/11 08:47:53;;;;;;;107.90;21.70;;;;;;;;;;5051324;28;20557;-78
2022/12/11 08:50:19;;;;;;;114.38;22.20;;;;;;;;;;5051843;28;20421;-77
2022/12/11 08:52:45;;;;;;;111.38;23.85;;;;;;;;;;5051830;28;20041;-77
2022/12/11 08:55:11;;;;;;;109.43;24.30;;;;;;;;;;5051345;28;20505;-77
2022/12/11 08:57:38;;;;;;;127.55;28.45;;;;;;;;;;5051413;28;20045;-77
2022/12/11 09:00:05;;;;;;;119.78;33.08;;;;;;;;;;5051137;28;20037;-77
2022/12/11 09:02:31;;;;;;;123.15;31.05;;;;;;;;;;5051318;28;20041;-77
2022/12/11 09:04:57;;;;;;;105.80;25.23;;;;;;;;;;5050988;28;20037;-77
2022/12/11 09:07:24;;;;;;;116.07;24.83;;;;;;;;;;5034750;28;20054;-77
2022/12/11 09:09:50;;;;;;;116.55;25.40;;;;;;;;;;5018285;28;20052;-77
2022/12/11 09:12:16;;;;;;;112.05;24.83;;;;;;;;;;5051499;28;20045;-77
2022/12/11 09:14:42;;;;;;;101.43;25.23;;;;;;;;;;5051273;28;20044;-77
2022/12/11 09:17:09;;;;;;;102.25;23.85;;;;;;;;;;5050887;28;20041;-77
2022/12/11 09:19:35;;;;;;;109.50;26.05;;;;;;;;;;5051345;28;20079;-77
2022/12/11 09:22:01;;;;;;;111.25;23.70;;;;;;;;;;5052143;28;20037;-77
2022/12/11 09:24:27;;;;;;;104.35;23.23;;;;;;;;;;5051587;28;20033;-77
2022/12/11 09:26:53;;;;;;;105.30;24.63;;;;;;;;;;5051258;28;20465;-77
2022/12/11 09:29:19;;;;;;;94.53;23.40;;;;;;;;;;5051362;28;20433;-77
2022/12/11 09:31:45;;;;;;;99.45;24.48;;;;;;;;;;5051348;28;20033;-77
2022/12/11 09:34:12;;;;;;;107.88;25.23;;;;;;;;;;5051332;28;20041;-77
2022/12/11 09:36:39;;;;;;;110.38;26.70;;;;;;;;;;5051453;28;20482;-78
2022/12/11 09:39:06;;;;;;;93.30;22.52;;;;;;;;;;5051786;28;20125;-77
2022/12/11 09:41:32;;;;;;;82.97;20.33;;;;;;;;;;5055110;28;20033;-77
2022/12/11 09:44:01;;;;;;;90.22;21.75;;;;;;;;;;5054832;28;20037;-77
2022/12/11 09:46:28;;;;;;;83.13;21.77;;;;;;;;;;5054868;28;20044;-77
2022/12/11 09:48:54;;;;;;;91.38;21.00;;;;;;;;;;5055576;28;20047;-77
2022/12/11 09:51:29;;;;;;;84.32;21.42;;;;;;;;;;5054825;28;20049;-77
2022/12/11 09:53:57;;;;;;;87.25;21.27;;;;;;;;;;5054935;28;20052;-78
2022/12/11 09:56:46;;;;;;;86.10;21.92;;;;;;;;;;5054711;28;20098;-77
2022/12/11 09:59:18;;;;;;;92.47;22.58;;;;;;;;;;5054356;28;20391;-77
2022/12/11 10:01:57;;;;;;;82.15;20.75;;;;;;;;;;5054680;28;20045;-77
2022/12/11 10:04:32;;;;;;;93.35;23.27;;;;;;;;;;5054790;28;20055;-77
2022/12/11 10:07:17;;;;;;;85.72;21.23;;;;;;;;;;5054503;28;20029;-77
2022/12/11 10:10:06;;;;;;;87.60;23.55;;;;;;;;;;5071181;28;20057;-77
2022/12/11 10:12:32;;;;;;;80.30;19.90;;;;;;;;;;5055869;28;20156;-77
2022/12/11 10:15:17;;;;;;;84.60;22.02;;;;;;;;;;5037871;28;20044;-77
2022/12/11 10:17:44;;;;;;;78.65;21.48;;;;;;;;;;5038376;28;20037;-77
2022/12/11 10:20:25;;;;;;;82.53;21.92;;;;;;;;;;5054215;28;20048;-78
2022/12/11 10:22:52;;;;;;;71.90;19.95;;;;;;;;;;5042740;28;20049;-77
2022/12/11 10:25:20;;;;;;;78.55;20.88;;;;;;;;;;5038009;28;20175;-77
2022/12/11 10:27:46;;;;;;;80.28;20.67;;;;;;;;;;5054147;28;20040;-77
2022/12/11 10:30:13;;;;;;;79.93;20.20;;;;;;;;;;5037600;28;20048;-77
2022/12/11 10:32:54;;;;;;;81.68;21.58;;;;;;;;;;5054362;28;20460;-77
2022/12/11 10:35:26;;;;;;;75.75;20.40;;;;;;;;;;5054362;28;20049;-77
2022/12/11 10:37:55;;;;;;;80.82;20.15;;;;;;;;;;5037517;28;20043;-77
2022/12/11 10:40:21;;;;;;;77.18;19.45;;;;;;;;;;5037321;28;20067;-77
2022/12/11 10:42:52;;;;;;;76.65;21.38;;;;;;;;;;5054184;28;20123;-77
2022/12/11 10:45:18;;;;;;;82.10;21.55;;;;;;;;;;5037322;28;20042;-77
2022/12/11 10:47:44;;;;;;;78.63;19.85;;;;;;;;;;5037189;28;20041;-77
2022/12/11 10:50:24;;;;;;;78.43;20.60;;;;;;;;;;5053647;28;20045;-77
2022/12/11 10:52:51;;;;;;;75.22;20.63;;;;;;;;;;5055287;28;20425;-77
2022/12/11 10:55:21;;;;;;;68.05;19.23;;;;;;;;;;5053786;28;20033;-77
2022/12/11 10:57:53;;;;;;;70.10;19.85;;;;;;;;;;5053726;28;20055;-77
2022/12/11 11:00:29;;;;;;;71.13;18.20;;;;;;;;;;5054157;28;20037;-77
2022/12/11 11:02:55;;;;;;;74.70;20.17;;;;;;;;;;5054725;28;20052;-77
2022/12/11 11:05:30;;;;;;;66.88;19.52;;;;;;;;;;5053436;28;20041;-77
2022/12/11 11:08:18;;;;;;;57.33;16.13;;;;;;;;;;5053760;28;20083;-77
2022/12/11 11:10:51;;;;;;;69.10;20.75;;;;;;;;;;5053497;28;20142;-77
2022/12/11 11:13:17;;;;;;;62.85;19.02;;;;;;;;;;5053255;28;20076;-77
2022/12/11 11:15:44;;;;;;;67.38;20.02;;;;;;;;;;5053516;28;20134;-77
2022/12/11 11:18:12;;;;;;;72.38;20.35;;;;;;;;;;5053207;28;20072;-77
2022/12/11 11:20:43;;;;;;;65.60;19.05;;;;;;;;;;5053722;28;20112;-77
2022/12/11 11:23:12;;;;;;;65.35;18.77;;;;;;;;;;5053310;28;20048;-77
2022/12/11 11:25:38;;;;;;;68.40;19.45;;;;;;;;;;5053263;28;20059;-77
2022/12/11 11:28:05;;;;;;;59.35;19.40;;;;;;;;;;5052888;28;20044;-76
2022/12/11 11:30:34;;;;;;;69.57;20.50;;;;;;;;;;5053359;28;20049;-77
2022/12/11 11:33:18;;;;;;;61.33;19.10;;;;;;;;;;5052349;28;20044;-77
2022/12/11 11:35:52;;;;;;;57.33;18.35;;;;;;;;;;5061791;28;20049;-77
2022/12/11 11:38:19;;;;;;;67.13;19.42;;;;;;;;;;5052042;28;20041;-77
2022/12/11 11:40:55;;;;;;;63.03;20.27;;;;;;;;;;5036237;28;20067;-77
2022/12/11 11:43:39;;;;;;;61.58;20.77;;;;;;;;;;5052438;28;20044;-77
2022/12/11 11:46:15;;;;;;;69.88;20.83;;;;;;;;;;5052846;28;20383;-77
2022/12/11 11:49:00;;;;;;;68.30;20.50;;;;;;;;;;5039149;28;20048;-77
2022/12/11 11:51:44;;;;;;;60.50;18.98;;;;;;;;;;5035880;28;20291;-77
2022/12/11 11:54:24;;;;;;;58.50;19.52;;;;;;;;;;5052354;28;20049;-77
2022/12/11 11:56:51;;;;;;;53.83;19.25;;;;;;;;;;5052855;28;20037;-77
2022/12/11 11:59:23;;;;;;;55.05;18.50;;;;;;;;;;5052425;28;20082;-77
2022/12/11 12:01:50;;;;;;;54.28;19.13;;;;;;;;;;5051764;28;20118;-77
2022/12/11 12:04:16;;;;;;;55.47;19.50;;;;;;;;;;5051923;28;20043;-77
2022/12/11 12:06:49;;;;;;;52.10;19.27;;;;;;;;;;5052274;28;20041;-77
2022/12/11 12:09:40;;;;;;;52.53;19.42;;;;;;;;;;5035261;28;20056;-77
2022/12/11 12:12:28;;;;;;;50.40;18.60;;;;;;;;;;5052513;28;20375;-77
2022/12/11 12:14:54;;;;;;;48.75;18.67;;;;;;;;;;5035558;28;20052;-77
2022/12/11 12:17:20;;;;;;;47.95;18.05;;;;;;;;;;5053264;28;20048;-77
2022/12/11 12:19:56;;;;;;;50.55;18.90;;;;;;;;;;5035533;28;20086;-77
2022/12/11 12:22:35;;;;;;;46.90;18.33;;;;;;;;;;5051802;28;20037;-77
2022/12/11 12:25:06;;;;;;;49.53;18.58;;;;;;;;;;5052405;28;20069;-77
2022/12/11 12:27:32;;;;;;;47.70;18.50;;;;;;;;;;5035521;28;20044;-77
2022/12/11 12:30:03;;;;;;;42.38;15.98;;;;;;;;;;5051870;28;20072;-77
2022/12/11 12:32:41;;;;;;;42.85;17.55;;;;;;;;;;5051555;28;20048;-78
2022/12/11 12:35:19;;;;;;;42.67;16.85;;;;;;;;;;5068389;28;20099;-77
2022/12/11 12:37:50;;;;;;;46.22;17.70;;;;;;;;;;5052992;28;20033;-77
2022/12/11 12:40:16;;;;;;;42.00;16.85;;;;;;;;;;5051573;28;20079;-77
2022/12/11 12:42:54;;;;;;;41.90;17.15;;;;;;;;;;5052144;28;20048;-77
2022/12/11 12:45:33;;;;;;;40.15;15.98;;;;;;;;;;5035166;28;20528;-77
2022/12/11 12:47:59;;;;;;;43.30;17.65;;;;;;;;;;5051855;28;20037;-77
2022/12/11 12:50:37;;;;;;;44.33;18.58;;;;;;;;;;5051035;28;20411;-77
2022/12/11 12:53:04;;;;;;;47.47;18.27;;;;;;;;;;5051429;28;20048;-77
2022/12/11 12:55:31;;;;;;;44.88;17.55;;;;;;;;;;5051128;28;20037;-77
2022/12/11 12:58:01;;;;;;;46.22;17.88;;;;;;;;;;5051481;28;20098;-77
2022/12/11 13:00:35;;;;;;;46.45;18.67;;;;;;;;;;5051360;28;20525;-77
2022/12/11 13:03:04;;;;;;;45.20;18.63;;;;;;;;;;5051788;28;20047;-77
2022/12/11 13:05:31;;;;;;;51.85;19.55;;;;;;;;;;5034394;28;20048;-77
2022/12/11 13:08:03;;;;;;;47.38;18.75;;;;;;;;;;5051451;28;20041;-77
2022/12/11 13:10:41;;;;;;;45.55;18.88;;;;;;;;;;5050570;28;20053;-77
2022/12/11 13:13:27;;;;;;;48.13;19.23;;;;;;;;;;5051269;28;20056;-77
2022/12/11 13:15:53;;;;;;;44.20;19.20;;;;;;;;;;5051188;28;20040;-77
2022/12/11 13:18:31;;;;;;;53.67;19.67;;;;;;;;;;5068282;28;20041;-77
2022/12/11 13:20:57;;;;;;;40.80;17.27;;;;;;;;;;5038103;28;20064;-77
2022/12/11 13:23:30;;;;;;;44.03;17.30;;;;;;;;;;5052376;28;20040;-77
2022/12/11 13:25:58;;;;;;;46.72;18.65;;;;;;;;;;5051202;28;20494;-77
2022/12/11 13:28:27;;;;;;;44.05;17.55;;;;;;;;;;5050631;28;20052;-77
2022/12/11 13:31:17;;;;;;;47.25;18.88;;;;;;;;;;5050994;28;20127;-77
2022/12/11 13:33:47;;;;;;;41.75;16.90;;;;;;;;;;5043001;28;20068;-77
2022/12/11 13:36:13;;;;;;;47.97;18.63;;;;;;;;;;5050741;28;20099;-77
2022/12/11 13:38:45;;;;;;;44.83;18.27;;;;;;;;;;5050634;28;20041;-77
2022/12/11 13:41:12;;;;;;;50.70;19.30;;;;;;;;;;5050975;28;20041;-77
2022/12/11 13:43:41;;;;;;;48.63;18.90;;;;;;;;;;5052063;28;20112;-77
2022/12/11 13:46:11;;;;;;;50.05;20.42;;;;;;;;;;5050894;28;20045;-77
2022/12/11 13:48:39;;;;;;;50.28;18.65;;;;;;;;;;5052411;28;20362;-77
2022/12/11 13:51:05;;;;;;;44.35;18.70;;;;;;;;;;5050729;28;20048;-77
2022/12/11 13:53:32;;;;;;;43.00;17.80;;;;;;;;;;5051845;28;20029;-77
2022/12/11 13:55:59;;;;;;;46.38;17.88;;;;;;;;;;5050816;28;20040;-77
2022/12/11 13:58:25;;;;;;;44.55;18.17;;;;;;;;;;5050786;28;20167;-77
2022/12/11 14:01:12;;;;;;;45.17;18.13;;;;;;;;;;5050760;28;20108;-77
2022/12/11 14:03:47;;;;;;;43.20;17.83;;;;;;;;;;5050486;28;20107;-77
2022/12/11 14:06:14;;;;;;;44.88;18.25;;;;;;;;;;5050536;28;20041;-77
2022/12/11 14:08:42;;;;;;;41.08;16.77;;;;;;;;;;5034099;28;20171;-77
2022/12/11 14:11:08;;;;;;;40.83;16.95;;;;;;;;;;5050405;28;20387;-77
2022/12/11 14:13:40;;;;;;;44.58;16.83;;;;;;;;;;5050218;28;20052;-77
2022/12/11 14:16:07;;;;;;;41.25;17.70;;;;;;;;;;5050648;28;20051;-77
2022/12/11 14:18:34;;;;;;;42.25;16.70;;;;;;;;;;5050427;28;20048;-77
2022/12/11 14:21:02;;;;;;;41.65;17.40;;;;;;;;;;5050793;28;20033;-77
2022/12/11 14:23:29;;;;;;;41.80;17.38;;;;;;;;;;5050727;28;20041;-76
2022/12/11 14:25:57;;;;;;;42.25;16.85;;;;;;;;;;5052589;28;20037;-76
2022/12/11 14:28:26;;;;;;;38.83;16.30;;;;;;;;;;5054530;28;20052;-78